Rome, OR

1:32 AM MDT on March 24, 2017 (GMT -0600)
Burns Municipal | | Change Station
Active Advisory: Flood Warning

Elev 4147 ft 43.59 °N, 118.96 °W | Updated 39 minutes ago

Clear
Clear
38 °F
Feels Like 34 °F
N
6
Wind Variable Wind from South

Today
High -- | Low -- °F
--% Chance of Precip.
Yesterday
High -- | Low -- °F
Precip. -- in
Pressure 30.03 in
Visibility 10.0 miles
Clouds Clear
Windchill 34 °F
Dew Point 30 °F
Humidity 73%
Rainfall 0.00 in
Snow Depth Not available.
7:47 AM 8:08 PM
Waning Crescent, 17% visible
METAR KBNO 240653Z AUTO 18005KT 10SM CLR 03/M01 A3001 RMK AO2 SLP167 T00331011 $
Pressure 30.03 in
Visibility 10.0 miles
Clouds Clear
Windchill 34 °F
Dew Point 30 °F
Humidity 73%
Rainfall 0.00 in
Snow Depth Not available.
7:47 AM 8:08 PM
Waning Crescent, 17% visible
METAR KBNO 240653Z AUTO 18005KT 10SM CLR 03/M01 A3001 RMK AO2 SLP167 T00331011 $

Get Your Daily Forecast Email!

Thanks for signing up!

Be on the lookout for a verification email in your inbox.

You'll start receiving severe weather alerts in your inbox..

×

10-Day Weather Forecast

Almanac

Astronomy

Mar. 24, 2017 Rise Set
Actual Time
Civil Twilight
Nautical Twilight
Astronomical Twilight
Moon
Length of Visible Light
Length of Day
Tomorrow will be .
, % of the Moon is Illuminated

Today's Extremes

State Highs State Lows

Community

WunderPhotos

Upload Photos

1,962,540 photos uploaded!

WunderBlog® & News

Nearby

Air Quality

  Air Quality AQ Index Pollutant
Not available.

Snow Depth

Station Depth Elevation

Earthquake Activity

City Distance Mag. Time & Date
Minimum magnitude displayed is 2.5.

Earthquake Activity

City Distance Mag. Time & Date
Minimum magnitude displayed is 2.5.

Coastal Water Temperatures

Place Temperature

Stations

Nearby Weather Stations

Station Location Temp. Windchill Dew Point Humidity Wind Precip. Elev Updated Type
                   

Watches & Warnings

Flood Warning
Issued: 8:40 AM MDT Mar. 23, 2017 – National Weather Service

... Flood Warning extended until Wednesday evening... the Flood Warning
continues for
the Snake River near Weiser.
* Until Wednesday evening... or until the warning is cancelled.
* At 8:00 am Thursday the stage was 12.3 feet.
* Minor flooding is occurring and minor flooding is forecast.
* Flood stage is 12.0 feet.
* Forecast... the river will continue rising to near 12.4 feet by
Sunday early afternoon. The river will fall below flood stage
Wednesday early afternoon.
* Impact... at 12.0 feet... flooding of agricultural land near the river
is likely in Malheur County, Oregon and in Washington County,
Idaho. Mortimer Road in Weiser will be flooded.


Lat... Lon 4431 11703 4417 11686 4405 11688 4406 11705
      4427 11714